sensor_id;sensor_type;location;lat;lon;timestamp;P1;durP1;ratioP1;P2;durP2;ratioP2
2784;SDS011;57944;48.722;9.316;2022-12-18T00:01:38;121.23;;;42.73;;
2784;SDS011;57944;48.722;9.316;2022-12-18T00:04:14;124.80;;;40.50;;
2784;SDS011;57944;48.722;9.316;2022-12-18T00:06:52;144.70;;;42.53;;
2784;SDS011;57944;48.722;9.316;2022-12-18T00:09:23;109.50;;;39.70;;
2784;SDS011;57944;48.722;9.316;2022-12-18T00:12:05;134.30;;;42.93;;
2784;SDS011;57944;48.722;9.316;2022-12-18T00:14:41;158.17;;;44.60;;
2784;SDS011;57944;48.722;9.316;2022-12-18T00:17:12;123.97;;;44.30;;
2784;SDS011;57944;48.722;9.316;2022-12-18T00:19:42;121.50;;;42.33;;
2784;SDS011;57944;48.722;9.316;2022-12-18T00:22:15;122.30;;;39.57;;
2784;SDS011;57944;48.722;9.316;2022-12-18T00:24:45;149.07;;;42.03;;
2784;SDS011;57944;48.722;9.316;2022-12-18T00:27:15;150.33;;;43.23;;
2784;SDS011;57944;48.722;9.316;2022-12-18T00:29:45;149.80;;;40.93;;
2784;SDS011;57944;48.722;9.316;2022-12-18T00:32:16;120.77;;;37.37;;
2784;SDS011;57944;48.722;9.316;2022-12-18T00:34:46;127.77;;;40.10;;
2784;SDS011;57944;48.722;9.316;2022-12-18T00:37:19;135.67;;;42.97;;
2784;SDS011;57944;48.722;9.316;2022-12-18T00:39:49;131.77;;;38.60;;
2784;SDS011;57944;48.722;9.316;2022-12-18T00:42:20;125.90;;;42.27;;
2784;SDS011;57944;48.722;9.316;2022-12-18T00:45:02;122.57;;;38.50;;
2784;SDS011;57944;48.722;9.316;2022-12-18T00:47:38;133.47;;;39.67;;
2784;SDS011;57944;48.722;9.316;2022-12-18T00:50:09;130.23;;;42.13;;
2784;SDS011;57944;48.722;9.316;2022-12-18T00:52:42;116.30;;;37.73;;
2784;SDS011;57944;48.722;9.316;2022-12-18T00:55:13;134.87;;;42.53;;
2784;SDS011;57944;48.722;9.316;2022-12-18T00:57:45;124.93;;;39.43;;
2784;SDS011;57944;48.722;9.316;2022-12-18T01:00:16;138.30;;;37.30;;
2784;SDS011;57944;48.722;9.316;2022-12-18T01:02:46;142.37;;;43.30;;
2784;SDS011;57944;48.722;9.316;2022-12-18T01:05:16;139.73;;;42.77;;
2784;SDS011;57944;48.722;9.316;2022-12-18T01:07:49;143.20;;;44.07;;
2784;SDS011;57944;48.722;9.316;2022-12-18T01:10:20;121.40;;;42.10;;
2784;SDS011;57944;48.722;9.316;2022-12-18T01:12:50;106.27;;;40.30;;
2784;SDS011;57944;48.722;9.316;2022-12-18T01:15:20;135.10;;;43.60;;
2784;SDS011;57944;48.722;9.316;2022-12-18T01:17:51;100.23;;;35.63;;
2784;SDS011;57944;48.722;9.316;2022-12-18T01:20:22;103.57;;;35.40;;
2784;SDS011;57944;48.722;9.316;2022-12-18T01:22:54;97.30;;;34.93;;
2784;SDS011;57944;48.722;9.316;2022-12-18T01:25:26;97.67;;;37.47;;
2784;SDS011;57944;48.722;9.316;2022-12-18T01:27:56;102.17;;;40.37;;
2784;SDS011;57944;48.722;9.316;2022-12-18T01:30:26;111.67;;;40.80;;
2784;SDS011;57944;48.722;9.316;2022-12-18T01:32:56;98.93;;;35.47;;
2784;SDS011;57944;48.722;9.316;2022-12-18T01:35:26;90.73;;;32.97;;
2784;SDS011;57944;48.722;9.316;2022-12-18T01:37:59;134.97;;;41.17;;
2784;SDS011;57944;48.722;9.316;2022-12-18T01:40:29;88.93;;;30.90;;
2784;SDS011;57944;48.722;9.316;2022-12-18T01:42:59;99.43;;;35.60;;
2784;SDS011;57944;48.722;9.316;2022-12-18T01:45:30;90.40;;;36.27;;
2784;SDS011;57944;48.722;9.316;2022-12-18T01:48:01;96.03;;;34.03;;
2784;SDS011;57944;48.722;9.316;2022-12-18T01:50:38;127.80;;;41.13;;
2784;SDS011;57944;48.722;9.316;2022-12-18T01:53:14;108.70;;;37.70;;
2784;SDS011;57944;48.722;9.316;2022-12-18T01:55:50;98.27;;;35.00;;
2784;SDS011;57944;48.722;9.316;2022-12-18T01:58:27;104.57;;;35.80;;
2784;SDS011;57944;48.722;9.316;2022-12-18T02:01:06;85.93;;;30.00;;
2784;SDS011;57944;48.722;9.316;2022-12-18T02:03:39;90.43;;;33.00;;
2784;SDS011;57944;48.722;9.316;2022-12-18T02:06:13;96.30;;;36.33;;
2784;SDS011;57944;48.722;9.316;2022-12-18T02:09:02;88.80;;;33.27;;
2784;SDS011;57944;48.722;9.316;2022-12-18T02:11:42;78.00;;;33.33;;
2784;SDS011;57944;48.722;9.316;2022-12-18T02:14:26;79.30;;;31.20;;
2784;SDS011;57944;48.722;9.316;2022-12-18T02:17:09;109.30;;;33.63;;
2784;SDS011;57944;48.722;9.316;2022-12-18T02:19:53;98.13;;;33.97;;
2784;SDS011;57944;48.722;9.316;2022-12-18T02:22:36;108.83;;;40.20;;
2784;SDS011;57944;48.722;9.316;2022-12-18T02:25:24;99.73;;;40.73;;
2784;SDS011;57944;48.722;9.316;2022-12-18T02:28:17;97.80;;;33.23;;
2784;SDS011;57944;48.722;9.316;2022-12-18T02:30:57;94.30;;;33.57;;
2784;SDS011;57944;48.722;9.316;2022-12-18T02:33:32;95.53;;;33.17;;
2784;SDS011;57944;48.722;9.316;2022-12-18T02:36:07;122.40;;;37.93;;
2784;SDS011;57944;48.722;9.316;2022-12-18T02:38:40;112.67;;;37.50;;
2784;SDS011;57944;48.722;9.316;2022-12-18T02:41:14;97.90;;;35.10;;
2784;SDS011;57944;48.722;9.316;2022-12-18T02:43:50;103.27;;;36.20;;
2784;SDS011;57944;48.722;9.316;2022-12-18T02:46:28;105.17;;;34.03;;
2784;SDS011;57944;48.722;9.316;2022-12-18T02:49:12;107.53;;;35.53;;
2784;SDS011;57944;48.722;9.316;2022-12-18T02:52:00;65.73;;;32.47;;
2784;SDS011;57944;48.722;9.316;2022-12-18T02:54:44;120.13;;;31.53;;
2784;SDS011;57944;48.722;9.316;2022-12-18T02:57:30;91.37;;;31.40;;
2784;SDS011;57944;48.722;9.316;2022-12-18T03:00:11;71.97;;;30.53;;
2784;SDS011;57944;48.722;9.316;2022-12-18T03:02:48;89.37;;;31.03;;
2784;SDS011;57944;48.722;9.316;2022-12-18T03:05:29;91.17;;;32.93;;
2784;SDS011;57944;48.722;9.316;2022-12-18T03:08:10;72.17;;;32.57;;
2784;SDS011;57944;48.722;9.316;2022-12-18T03:10:49;82.33;;;29.20;;
2784;SDS011;57944;48.722;9.316;2022-12-18T03:13:23;104.37;;;32.87;;
2784;SDS011;57944;48.722;9.316;2022-12-18T03:16:08;103.37;;;32.20;;
2784;SDS011;57944;48.722;9.316;2022-12-18T03:18:44;76.37;;;29.90;;
2784;SDS011;57944;48.722;9.316;2022-12-18T03:21:23;65.90;;;28.70;;
2784;SDS011;57944;48.722;9.316;2022-12-18T03:24:03;59.03;;;24.63;;
2784;SDS011;57944;48.722;9.316;2022-12-18T03:26:40;71.83;;;31.60;;
2784;SDS011;57944;48.722;9.316;2022-12-18T03:29:17;78.27;;;28.13;;
2784;SDS011;57944;48.722;9.316;2022-12-18T03:31:54;105.50;;;32.20;;
2784;SDS011;57944;48.722;9.316;2022-12-18T03:34:34;80.77;;;31.07;;
2784;SDS011;57944;48.722;9.316;2022-12-18T03:37:12;81.63;;;32.70;;
2784;SDS011;57944;48.722;9.316;2022-12-18T03:39:42;73.57;;;28.40;;
2784;SDS011;57944;48.722;9.316;2022-12-18T03:42:14;65.60;;;24.73;;
2784;SDS011;57944;48.722;9.316;2022-12-18T03:45:06;54.73;;;25.37;;
2784;SDS011;57944;48.722;9.316;2022-12-18T03:47:50;74.03;;;27.23;;
2784;SDS011;57944;48.722;9.316;2022-12-18T03:50:37;101.57;;;30.00;;
2784;SDS011;57944;48.722;9.316;2022-12-18T03:53:18;94.73;;;29.90;;
2784;SDS011;57944;48.722;9.316;2022-12-18T03:56:03;93.90;;;28.90;;
2784;SDS011;57944;48.722;9.316;2022-12-18T03:58:38;80.87;;;29.10;;
2784;SDS011;57944;48.722;9.316;2022-12-18T04:01:17;80.77;;;27.83;;
2784;SDS011;57944;48.722;9.316;2022-12-18T04:03:56;67.30;;;25.60;;
2784;SDS011;57944;48.722;9.316;2022-12-18T04:06:35;62.50;;;28.80;;
2784;SDS011;57944;48.722;9.316;2022-12-18T04:09:08;70.87;;;26.87;;
2784;SDS011;57944;48.722;9.316;2022-12-18T04:11:43;73.40;;;23.00;;
2784;SDS011;57944;48.722;9.316;2022-12-18T04:14:14;58.90;;;20.97;;
2784;SDS011;57944;48.722;9.316;2022-12-18T04:16:49;60.17;;;23.27;;
2784;SDS011;57944;48.722;9.316;2022-12-18T04:19:27;70.00;;;27.63;;
2784;SDS011;57944;48.722;9.316;2022-12-18T04:21:58;64.80;;;23.43;;
2784;SDS011;57944;48.722;9.316;2022-12-18T04:24:33;64.10;;;22.77;;
2784;SDS011;57944;48.722;9.316;2022-12-18T04:27:10;78.57;;;27.57;;
2784;SDS011;57944;48.722;9.316;2022-12-18T04:29:46;58.50;;;23.90;;
2784;SDS011;57944;48.722;9.316;2022-12-18T04:32:17;61.00;;;26.33;;
2784;SDS011;57944;48.722;9.316;2022-12-18T04:34:50;50.83;;;20.30;;
2784;SDS011;57944;48.722;9.316;2022-12-18T04:37:21;60.80;;;24.37;;
2784;SDS011;57944;48.722;9.316;2022-12-18T04:39:51;54.90;;;23.60;;
2784;SDS011;57944;48.722;9.316;2022-12-18T04:42:32;61.20;;;21.50;;
2784;SDS011;57944;48.722;9.316;2022-12-18T04:45:02;65.65;;;25.95;;
2784;SDS011;57944;48.722;9.316;2022-12-18T04:47:33;51.27;;;22.17;;
2784;SDS011;57944;48.722;9.316;2022-12-18T04:50:07;71.63;;;22.70;;
2784;SDS011;57944;48.722;9.316;2022-12-18T04:52:37;63.73;;;25.10;;
2784;SDS011;57944;48.722;9.316;2022-12-18T04:55:07;70.67;;;25.20;;
2784;SDS011;57944;48.722;9.316;2022-12-18T04:57:37;60.23;;;21.40;;
2784;SDS011;57944;48.722;9.316;2022-12-18T05:00:08;54.43;;;22.70;;
2784;SDS011;57944;48.722;9.316;2022-12-18T05:02:40;69.00;;;24.13;;
2784;SDS011;57944;48.722;9.316;2022-12-18T05:05:13;58.05;;;22.67;;
2784;SDS011;57944;48.722;9.316;2022-12-18T05:07:43;57.83;;;24.13;;
2784;SDS011;57944;48.722;9.316;2022-12-18T05:10:13;58.87;;;25.20;;
2784;SDS011;57944;48.722;9.316;2022-12-18T05:12:44;59.73;;;25.53;;
2784;SDS011;57944;48.722;9.316;2022-12-18T05:15:30;39.23;;;19.27;;
2784;SDS011;57944;48.722;9.316;2022-12-18T05:18:02;43.80;;;17.50;;
2784;SDS011;57944;48.722;9.316;2022-12-18T05:20:35;47.63;;;19.87;;
2784;SDS011;57944;48.722;9.316;2022-12-18T05:23:05;48.60;;;22.77;;
2784;SDS011;57944;48.722;9.316;2022-12-18T05:25:36;60.30;;;23.50;;
2784;SDS011;57944;48.722;9.316;2022-12-18T05:28:06;66.30;;;22.63;;
2784;SDS011;57944;48.722;9.316;2022-12-18T05:30:37;51.40;;;19.37;;
2784;SDS011;57944;48.722;9.316;2022-12-18T05:33:07;51.23;;;20.50;;
2784;SDS011;57944;48.722;9.316;2022-12-18T05:35:39;45.10;;;18.00;;
2784;SDS011;57944;48.722;9.316;2022-12-18T05:38:09;51.70;;;20.43;;
2784;SDS011;57944;48.722;9.316;2022-12-18T05:40:41;36.50;;;17.13;;
2784;SDS011;57944;48.722;9.316;2022-12-18T05:43:11;53.23;;;21.10;;
2784;SDS011;57944;48.722;9.316;2022-12-18T05:45:46;41.85;;;17.70;;
2784;SDS011;57944;48.722;9.316;2022-12-18T05:48:17;47.87;;;22.57;;
2784;SDS011;57944;48.722;9.316;2022-12-18T05:50:51;40.13;;;21.57;;
2784;SDS011;57944;48.722;9.316;2022-12-18T05:53:21;47.33;;;21.83;;
2784;SDS011;57944;48.722;9.316;2022-12-18T05:55:51;55.67;;;22.03;;
2784;SDS011;57944;48.722;9.316;2022-12-18T05:58:21;52.20;;;22.20;;
2784;SDS011;57944;48.722;9.316;2022-12-18T06:00:51;56.90;;;22.03;;
2784;SDS011;57944;48.722;9.316;2022-12-18T06:03:21;53.17;;;22.63;;
2784;SDS011;57944;48.722;9.316;2022-12-18T06:06:01;61.17;;;22.80;;
2784;SDS011;57944;48.722;9.316;2022-12-18T06:08:32;47.37;;;21.53;;
2784;SDS011;57944;48.722;9.316;2022-12-18T06:11:09;51.47;;;21.03;;
2784;SDS011;57944;48.722;9.316;2022-12-18T06:13:40;58.30;;;22.97;;
2784;SDS011;57944;48.722;9.316;2022-12-18T06:16:10;57.97;;;21.30;;
2784;SDS011;57944;48.722;9.316;2022-12-18T06:18:40;48.70;;;23.17;;
2784;SDS011;57944;48.722;9.316;2022-12-18T06:21:13;46.17;;;18.13;;
2784;SDS011;57944;48.722;9.316;2022-12-18T06:23:43;40.27;;;19.50;;
2784;SDS011;57944;48.722;9.316;2022-12-18T06:26:13;45.53;;;19.13;;
2784;SDS011;57944;48.722;9.316;2022-12-18T06:28:50;53.83;;;21.97;;
2784;SDS011;57944;48.722;9.316;2022-12-18T06:31:20;54.50;;;22.70;;
2784;SDS011;57944;48.722;9.316;2022-12-18T06:33:50;38.83;;;18.50;;
2784;SDS011;57944;48.722;9.316;2022-12-18T06:36:23;40.65;;;19.35;;
2784;SDS011;57944;48.722;9.316;2022-12-18T06:38:53;41.88;;;20.20;;
2784;SDS011;57944;48.722;9.316;2022-12-18T06:41:23;45.17;;;21.20;;
2784;SDS011;57944;48.722;9.316;2022-12-18T06:43:53;45.43;;;20.97;;
2784;SDS011;57944;48.722;9.316;2022-12-18T06:46:25;52.33;;;23.20;;
2784;SDS011;57944;48.722;9.316;2022-12-18T06:48:55;56.92;;;22.33;;
2784;SDS011;57944;48.722;9.316;2022-12-18T06:51:28;43.10;;;19.93;;
2784;SDS011;57944;48.722;9.316;2022-12-18T06:53:58;59.33;;;23.23;;
2784;SDS011;57944;48.722;9.316;2022-12-18T06:56:28;62.30;;;20.90;;
2784;SDS011;57944;48.722;9.316;2022-12-18T06:58:58;64.70;;;25.25;;
2784;SDS011;57944;48.722;9.316;2022-12-18T07:01:28;48.60;;;20.80;;
2784;SDS011;57944;48.722;9.316;2022-12-18T07:03:59;43.07;;;19.43;;
2784;SDS011;57944;48.722;9.316;2022-12-18T07:06:31;41.50;;;21.17;;
2784;SDS011;57944;48.722;9.316;2022-12-18T07:09:01;64.93;;;26.27;;
2784;SDS011;57944;48.722;9.316;2022-12-18T07:11:32;65.23;;;25.90;;
2784;SDS011;57944;48.722;9.316;2022-12-18T07:14:02;73.67;;;29.50;;
2784;SDS011;57944;48.722;9.316;2022-12-18T07:16:32;60.33;;;25.20;;
2784;SDS011;57944;48.722;9.316;2022-12-18T07:19:02;67.60;;;26.20;;
2784;SDS011;57944;48.722;9.316;2022-12-18T07:21:35;54.47;;;25.60;;
2784;SDS011;57944;48.722;9.316;2022-12-18T07:24:05;89.10;;;37.50;;
2784;SDS011;57944;48.722;9.316;2022-12-18T07:26:36;76.13;;;32.08;;
2784;SDS011;57944;48.722;9.316;2022-12-18T07:29:07;107.77;;;37.10;;
2784;SDS011;57944;48.722;9.316;2022-12-18T07:31:37;46.42;;;24.10;;
2784;SDS011;57944;48.722;9.316;2022-12-18T07:34:09;71.65;;;26.35;;
2784;SDS011;57944;48.722;9.316;2022-12-18T07:36:43;71.77;;;28.60;;
2784;SDS011;57944;48.722;9.316;2022-12-18T07:39:13;111.13;;;35.37;;
2784;SDS011;57944;48.722;9.316;2022-12-18T07:41:44;59.43;;;25.07;;
2784;SDS011;57944;48.722;9.316;2022-12-18T07:44:34;70.53;;;26.33;;
2784;SDS011;57944;48.722;9.316;2022-12-18T07:47:05;61.77;;;24.50;;
2784;SDS011;57944;48.722;9.316;2022-12-18T07:49:37;65.17;;;21.67;;
2784;SDS011;57944;48.722;9.316;2022-12-18T07:52:10;61.73;;;26.33;;
2784;SDS011;57944;48.722;9.316;2022-12-18T07:54:40;64.57;;;23.80;;
2784;SDS011;57944;48.722;9.316;2022-12-18T07:57:10;68.27;;;24.30;;
2784;SDS011;57944;48.722;9.316;2022-12-18T08:00:00;73.13;;;26.43;;
2784;SDS011;57944;48.722;9.316;2022-12-18T08:02:37;72.67;;;25.77;;
2784;SDS011;57944;48.722;9.316;2022-12-18T08:05:08;41.87;;;21.67;;
2784;SDS011;57944;48.722;9.316;2022-12-18T08:07:41;54.40;;;27.27;;
2784;SDS011;57944;48.722;9.316;2022-12-18T08:10:11;115.80;;;38.03;;
2784;SDS011;57944;48.722;9.316;2022-12-18T08:12:41;70.10;;;28.30;;
2784;SDS011;57944;48.722;9.316;2022-12-18T08:15:11;61.80;;;27.53;;
2784;SDS011;57944;48.722;9.316;2022-12-18T08:17:41;53.40;;;25.50;;
2784;SDS011;57944;48.722;9.316;2022-12-18T08:20:11;70.23;;;24.50;;
2784;SDS011;57944;48.722;9.316;2022-12-18T08:22:47;43.70;;;20.77;;
2784;SDS011;57944;48.722;9.316;2022-12-18T08:25:17;53.07;;;21.87;;
2784;SDS011;57944;48.722;9.316;2022-12-18T08:27:47;52.37;;;23.50;;
2784;SDS011;57944;48.722;9.316;2022-12-18T08:30:18;58.30;;;25.20;;
2784;SDS011;57944;48.722;9.316;2022-12-18T08:32:50;44.13;;;23.27;;
2784;SDS011;57944;48.722;9.316;2022-12-18T08:35:21;43.10;;;20.10;;
2784;SDS011;57944;48.722;9.316;2022-12-18T08:37:54;66.00;;;22.83;;
2784;SDS011;57944;48.722;9.316;2022-12-18T08:40:24;49.60;;;22.07;;
2784;SDS011;57944;48.722;9.316;2022-12-18T08:42:54;47.17;;;20.83;;
2784;SDS011;57944;48.722;9.316;2022-12-18T08:45:36;67.33;;;27.80;;
2784;SDS011;57944;48.722;9.316;2022-12-18T08:48:07;65.87;;;27.37;;
2784;SDS011;57944;48.722;9.316;2022-12-18T08:50:37;59.40;;;29.67;;
2784;SDS011;57944;48.722;9.316;2022-12-18T08:53:11;63.27;;;29.70;;
2784;SDS011;57944;48.722;9.316;2022-12-18T08:55:41;60.60;;;28.33;;
2784;SDS011;57944;48.722;9.316;2022-12-18T08:58:15;78.17;;;29.67;;
2784;SDS011;57944;48.722;9.316;2022-12-18T09:00:45;73.20;;;27.37;;
2784;SDS011;57944;48.722;9.316;2022-12-18T09:03:16;69.13;;;29.07;;
2784;SDS011;57944;48.722;9.316;2022-12-18T09:05:49;71.90;;;28.17;;
2784;SDS011;57944;48.722;9.316;2022-12-18T09:08:22;68.20;;;27.33;;
2784;SDS011;57944;48.722;9.316;2022-12-18T09:10:52;72.57;;;26.10;;
2784;SDS011;57944;48.722;9.316;2022-12-18T09:13:22;60.33;;;26.77;;
2784;SDS011;57944;48.722;9.316;2022-12-18T09:15:53;57.60;;;25.13;;
2784;SDS011;57944;48.722;9.316;2022-12-18T09:18:24;74.50;;;26.70;;
2784;SDS011;57944;48.722;9.316;2022-12-18T09:20:54;53.73;;;24.07;;
2784;SDS011;57944;48.722;9.316;2022-12-18T09:23:27;51.13;;;23.93;;
2784;SDS011;57944;48.722;9.316;2022-12-18T09:25:58;62.07;;;21.70;;
2784;SDS011;57944;48.722;9.316;2022-12-18T09:28:29;52.90;;;22.43;;
2784;SDS011;57944;48.722;9.316;2022-12-18T09:31:03;49.03;;;22.20;;
2784;SDS011;57944;48.722;9.316;2022-12-18T09:33:35;61.00;;;24.13;;
2784;SDS011;57944;48.722;9.316;2022-12-18T09:36:08;48.23;;;20.60;;
2784;SDS011;57944;48.722;9.316;2022-12-18T09:38:45;54.33;;;23.33;;
2784;SDS011;57944;48.722;9.316;2022-12-18T09:41:17;57.67;;;20.83;;
2784;SDS011;57944;48.722;9.316;2022-12-18T09:44:03;55.13;;;23.00;;
2784;SDS011;57944;48.722;9.316;2022-12-18T09:46:49;38.20;;;21.27;;
2784;SDS011;57944;48.722;9.316;2022-12-18T09:49:31;45.90;;;23.40;;
2784;SDS011;57944;48.722;9.316;2022-12-18T09:52:09;39.80;;;20.10;;
2784;SDS011;57944;48.722;9.316;2022-12-18T09:54:52;55.00;;;20.53;;
2784;SDS011;57944;48.722;9.316;2022-12-18T09:57:29;61.33;;;24.03;;
2784;SDS011;57944;48.722;9.316;2022-12-18T10:00:08;49.60;;;23.93;;
2784;SDS011;57944;48.722;9.316;2022-12-18T10:02:48;54.40;;;21.67;;
2784;SDS011;57944;48.722;9.316;2022-12-18T10:05:24;51.63;;;22.70;;
2784;SDS011;57944;48.722;9.316;2022-12-18T10:08:07;52.30;;;22.27;;
2784;SDS011;57944;48.722;9.316;2022-12-18T10:10:49;56.50;;;22.70;;
2784;SDS011;57944;48.722;9.316;2022-12-18T10:13:23;48.30;;;23.10;;
2784;SDS011;57944;48.722;9.316;2022-12-18T10:16:04;46.17;;;22.33;;
2784;SDS011;57944;48.722;9.316;2022-12-18T10:18:56;49.87;;;23.60;;
2784;SDS011;57944;48.722;9.316;2022-12-18T10:21:43;53.57;;;22.60;;
2784;SDS011;57944;48.722;9.316;2022-12-18T10:24:28;53.47;;;23.70;;
2784;SDS011;57944;48.722;9.316;2022-12-18T10:27:14;43.13;;;23.27;;
2784;SDS011;57944;48.722;9.316;2022-12-18T10:29:46;68.13;;;25.53;;
2784;SDS011;57944;48.722;9.316;2022-12-18T10:32:18;44.53;;;22.40;;
2784;SDS011;57944;48.722;9.316;2022-12-18T10:34:52;47.93;;;22.90;;
2784;SDS011;57944;48.722;9.316;2022-12-18T10:37:27;56.07;;;24.40;;
2784;SDS011;57944;48.722;9.316;2022-12-18T10:40:07;51.70;;;22.90;;
2784;SDS011;57944;48.722;9.316;2022-12-18T10:42:50;51.63;;;21.60;;
2784;SDS011;57944;48.722;9.316;2022-12-18T10:45:34;49.60;;;21.33;;
2784;SDS011;57944;48.722;9.316;2022-12-18T10:48:16;56.07;;;24.67;;
2784;SDS011;57944;48.722;9.316;2022-12-18T10:50:49;48.07;;;24.97;;
2784;SDS011;57944;48.722;9.316;2022-12-18T10:53:39;50.57;;;23.80;;
2784;SDS011;57944;48.722;9.316;2022-12-18T10:56:11;63.33;;;30.10;;
2784;SDS011;57944;48.722;9.316;2022-12-18T10:58:57;60.03;;;25.77;;
2784;SDS011;57944;48.722;9.316;2022-12-18T11:01:44;42.87;;;23.50;;
2784;SDS011;57944;48.722;9.316;2022-12-18T11:04:20;60.60;;;28.07;;
2784;SDS011;57944;48.722;9.316;2022-12-18T11:06:52;54.53;;;24.77;;
2784;SDS011;57944;48.722;9.316;2022-12-18T11:09:29;49.00;;;21.57;;
2784;SDS011;57944;48.722;9.316;2022-12-18T11:12:01;63.43;;;24.70;;
2784;SDS011;57944;48.722;9.316;2022-12-18T11:14:43;49.67;;;24.57;;
2784;SDS011;57944;48.722;9.316;2022-12-18T11:17:18;51.77;;;25.67;;
2784;SDS011;57944;48.722;9.316;2022-12-18T11:19:52;52.70;;;25.37;;
2784;SDS011;57944;48.722;9.316;2022-12-18T11:22:25;51.37;;;24.93;;
2784;SDS011;57944;48.722;9.316;2022-12-18T11:24:58;53.40;;;26.50;;
2784;SDS011;57944;48.722;9.316;2022-12-18T11:27:55;51.37;;;22.50;;
2784;SDS011;57944;48.722;9.316;2022-12-18T11:30:31;57.37;;;27.70;;
2784;SDS011;57944;48.722;9.316;2022-12-18T11:33:04;50.70;;;26.97;;
2784;SDS011;57944;48.722;9.316;2022-12-18T11:35:40;49.63;;;24.23;;
2784;SDS011;57944;48.722;9.316;2022-12-18T11:38:21;49.47;;;25.47;;
2784;SDS011;57944;48.722;9.316;2022-12-18T11:40:56;45.00;;;24.63;;
2784;SDS011;57944;48.722;9.316;2022-12-18T11:43:33;59.73;;;26.23;;
2784;SDS011;57944;48.722;9.316;2022-12-18T11:46:15;57.90;;;27.77;;
2784;SDS011;57944;48.722;9.316;2022-12-18T11:48:56;48.60;;;25.50;;
2784;SDS011;57944;48.722;9.316;2022-12-18T11:51:37;45.67;;;23.00;;
2784;SDS011;57944;48.722;9.316;2022-12-18T11:54:14;51.57;;;24.73;;
2784;SDS011;57944;48.722;9.316;2022-12-18T11:56:47;52.77;;;24.00;;
2784;SDS011;57944;48.722;9.316;2022-12-18T11:59:26;50.63;;;26.07;;
2784;SDS011;57944;48.722;9.316;2022-12-18T12:02:16;49.00;;;24.33;;
2784;SDS011;57944;48.722;9.316;2022-12-18T12:05:10;65.73;;;26.13;;
2784;SDS011;57944;48.722;9.316;2022-12-18T12:08:01;61.93;;;24.40;;
2784;SDS011;57944;48.722;9.316;2022-12-18T12:10:47;40.13;;;22.77;;
2784;SDS011;57944;48.722;9.316;2022-12-18T12:13:35;53.33;;;25.47;;
2784;SDS011;57944;48.722;9.316;2022-12-18T12:16:20;44.10;;;21.83;;
2784;SDS011;57944;48.722;9.316;2022-12-18T12:19:06;61.93;;;25.40;;
2784;SDS011;57944;48.722;9.316;2022-12-18T12:21:58;48.73;;;24.97;;
2784;SDS011;57944;48.722;9.316;2022-12-18T12:24:42;55.13;;;26.80;;
2784;SDS011;57944;48.722;9.316;2022-12-18T12:27:26;48.57;;;27.10;;
2784;SDS011;57944;48.722;9.316;2022-12-18T12:30:11;54.00;;;26.97;;
2784;SDS011;57944;48.722;9.316;2022-12-18T12:32:52;43.17;;;22.57;;
2784;SDS011;57944;48.722;9.316;2022-12-18T12:35:47;57.93;;;28.30;;
2784;SDS011;57944;48.722;9.316;2022-12-18T12:38:30;57.03;;;26.13;;
2784;SDS011;57944;48.722;9.316;2022-12-18T12:41:07;54.13;;;25.90;;
2784;SDS011;57944;48.722;9.316;2022-12-18T12:43:55;51.13;;;24.17;;
2784;SDS011;57944;48.722;9.316;2022-12-18T12:46:32;56.20;;;25.07;;
2784;SDS011;57944;48.722;9.316;2022-12-18T12:49:09;46.60;;;24.53;;
2784;SDS011;57944;48.722;9.316;2022-12-18T12:51:47;56.67;;;24.10;;
2784;SDS011;57944;48.722;9.316;2022-12-18T12:54:26;51.37;;;26.07;;
2784;SDS011;57944;48.722;9.316;2022-12-18T12:57:02;57.97;;;25.60;;
2784;SDS011;57944;48.722;9.316;2022-12-18T12:59:45;51.80;;;24.03;;
2784;SDS011;57944;48.722;9.316;2022-12-18T13:02:28;57.10;;;27.00;;
2784;SDS011;57944;48.722;9.316;2022-12-18T13:05:18;50.13;;;25.90;;
2784;SDS011;57944;48.722;9.316;2022-12-18T13:07:59;63.90;;;24.37;;
2784;SDS011;57944;48.722;9.316;2022-12-18T13:10:35;48.20;;;24.30;;
2784;SDS011;57944;48.722;9.316;2022-12-18T13:13:09;57.73;;;26.07;;
2784;SDS011;57944;48.722;9.316;2022-12-18T13:15:46;57.83;;;27.40;;
2784;SDS011;57944;48.722;9.316;2022-12-18T13:18:32;50.53;;;26.27;;
2784;SDS011;57944;48.722;9.316;2022-12-18T13:21:08;49.60;;;25.40;;
2784;SDS011;57944;48.722;9.316;2022-12-18T13:23:53;52.90;;;26.63;;
2784;SDS011;57944;48.722;9.316;2022-12-18T13:26:31;49.80;;;21.77;;
2784;SDS011;57944;48.722;9.316;2022-12-18T13:29:02;59.83;;;26.10;;
2784;SDS011;57944;48.722;9.316;2022-12-18T13:38:19;46.23;;;23.80;;
2784;SDS011;57944;48.722;9.316;2022-12-18T13:40:58;47.67;;;25.53;;
2784;SDS011;57944;48.722;9.316;2022-12-18T13:43:30;48.73;;;26.57;;
2784;SDS011;57944;48.722;9.316;2022-12-18T13:46:21;52.53;;;22.27;;
2784;SDS011;57944;48.722;9.316;2022-12-18T13:48:57;55.23;;;24.87;;
2784;SDS011;57944;48.722;9.316;2022-12-18T13:51:51;47.20;;;22.97;;
2784;SDS011;57944;48.722;9.316;2022-12-18T13:54:25;59.97;;;27.77;;
2784;SDS011;57944;48.722;9.316;2022-12-18T13:57:23;52.20;;;26.97;;
2784;SDS011;57944;48.722;9.316;2022-12-18T13:59:57;59.23;;;26.90;;
2784;SDS011;57944;48.722;9.316;2022-12-18T14:02:44;52.07;;;24.20;;
2784;SDS011;57944;48.722;9.316;2022-12-18T14:05:21;57.57;;;23.27;;
2784;SDS011;57944;48.722;9.316;2022-12-18T14:07:52;57.13;;;27.03;;
2784;SDS011;57944;48.722;9.316;2022-12-18T14:10:23;63.93;;;28.73;;
2784;SDS011;57944;48.722;9.316;2022-12-18T14:13:17;76.87;;;33.43;;
2784;SDS011;57944;48.722;9.316;2022-12-18T14:15:56;54.87;;;26.73;;
2784;SDS011;57944;48.722;9.316;2022-12-18T14:18:31;62.83;;;29.83;;
2784;SDS011;57944;48.722;9.316;2022-12-18T14:21:18;52.50;;;25.33;;
2784;SDS011;57944;48.722;9.316;2022-12-18T14:24:03;57.53;;;28.07;;
2784;SDS011;57944;48.722;9.316;2022-12-18T14:26:45;56.87;;;24.57;;
2784;SDS011;57944;48.722;9.316;2022-12-18T14:29:20;57.60;;;25.07;;
2784;SDS011;57944;48.722;9.316;2022-12-18T14:32:06;56.30;;;26.03;;
2784;SDS011;57944;48.722;9.316;2022-12-18T14:34:45;57.73;;;25.37;;
2784;SDS011;57944;48.722;9.316;2022-12-18T14:37:17;49.90;;;24.37;;
2784;SDS011;57944;48.722;9.316;2022-12-18T14:39:56;51.30;;;26.50;;
2784;SDS011;57944;48.722;9.316;2022-12-18T14:42:36;60.43;;;28.33;;
2784;SDS011;57944;48.722;9.316;2022-12-18T14:48:11;71.87;;;29.77;;
2784;SDS011;57944;48.722;9.316;2022-12-18T14:50:56;92.40;;;42.50;;
2784;SDS011;57944;48.722;9.316;2022-12-18T14:53:32;95.53;;;37.17;;
2784;SDS011;57944;48.722;9.316;2022-12-18T14:56:14;74.13;;;35.20;;
2784;SDS011;57944;48.722;9.316;2022-12-18T14:58:49;64.10;;;33.30;;
2784;SDS011;57944;48.722;9.316;2022-12-18T15:01:27;66.73;;;31.23;;
2784;SDS011;57944;48.722;9.316;2022-12-18T15:04:01;71.27;;;32.77;;
2784;SDS011;57944;48.722;9.316;2022-12-18T15:06:34;67.23;;;30.57;;
2784;SDS011;57944;48.722;9.316;2022-12-18T15:09:20;77.13;;;34.90;;
2784;SDS011;57944;48.722;9.316;2022-12-18T15:11:55;74.07;;;36.37;;
2784;SDS011;57944;48.722;9.316;2022-12-18T15:14:38;73.57;;;34.83;;
2784;SDS011;57944;48.722;9.316;2022-12-18T15:17:17;69.17;;;34.60;;
2784;SDS011;57944;48.722;9.316;2022-12-18T15:19:53;69.37;;;33.53;;
2784;SDS011;57944;48.722;9.316;2022-12-18T15:22:30;65.67;;;29.10;;
2784;SDS011;57944;48.722;9.316;2022-12-18T15:25:20;73.07;;;32.67;;
2784;SDS011;57944;48.722;9.316;2022-12-18T15:28:00;64.20;;;28.87;;
2784;SDS011;57944;48.722;9.316;2022-12-18T15:30:30;67.70;;;29.03;;
2784;SDS011;57944;48.722;9.316;2022-12-18T15:35:57;54.07;;;25.53;;
2784;SDS011;57944;48.722;9.316;2022-12-18T15:38:28;85.43;;;31.20;;